createdAt,value
2023-01-29T00:01:51.564Z,7.10
2023-01-29T00:04:28.407Z,6.80
2023-01-29T00:07:05.316Z,6.80
2023-01-29T00:09:42.329Z,6.70
2023-01-29T00:12:19.691Z,7.00
2023-01-29T00:14:56.975Z,6.00
2023-01-29T00:17:34.114Z,6.30
2023-01-29T00:20:15.525Z,5.80
2023-01-29T00:22:51.973Z,6.10
2023-01-29T00:25:28.849Z,6.10
2023-01-29T00:28:05.529Z,6.80
2023-01-29T00:30:42.471Z,7.20
2023-01-29T00:33:19.586Z,6.00
2023-01-29T00:35:55.764Z,6.30
2023-01-29T00:38:32.400Z,5.50
2023-01-29T00:41:31.364Z,5.00
2023-01-29T00:44:25.536Z,5.50
2023-01-29T00:47:02.279Z,6.00
2023-01-29T00:49:39.236Z,8.00
2023-01-29T00:52:27.586Z,6.10
2023-01-29T00:55:05.076Z,6.30
2023-01-29T00:57:41.889Z,5.10
2023-01-29T01:00:27.219Z,5.90
2023-01-29T01:03:09.356Z,6.30
2023-01-29T01:05:46.447Z,5.30
2023-01-29T01:08:39.081Z,6.10
2023-01-29T01:11:15.705Z,5.50
2023-01-29T01:13:52.134Z,6.00
2023-01-29T01:16:29.562Z,5.60
2023-01-29T01:19:06.092Z,5.90
2023-01-29T01:21:45.738Z,6.40
2023-01-29T01:24:23.675Z,5.50
2023-01-29T01:27:00.414Z,5.70
2023-01-29T01:29:38.285Z,5.70
2023-01-29T01:32:16.138Z,5.90
2023-01-29T01:34:52.284Z,6.60
2023-01-29T01:37:28.954Z,5.30
2023-01-29T01:40:06.115Z,5.50
2023-01-29T01:42:43.680Z,5.90
2023-01-29T01:45:28.423Z,5.60
2023-01-29T01:48:14.353Z,6.00
2023-01-29T01:50:56.236Z,5.70
2023-01-29T01:53:41.856Z,5.30
2023-01-29T01:56:25.691Z,6.00
2023-01-29T01:59:03.561Z,4.80
2023-01-29T02:01:42.964Z,5.90
2023-01-29T02:04:42.025Z,6.10
2023-01-29T02:07:37.767Z,5.20
2023-01-29T02:10:20.688Z,6.40
2023-01-29T02:12:57.274Z,6.60
2023-01-29T02:15:34.392Z,6.20
2023-01-29T02:18:12.281Z,5.40
2023-01-29T02:21:05.771Z,5.60
2023-01-29T02:24:19.622Z,5.70
2023-01-29T02:27:11.298Z,6.00
2023-01-29T02:30:01.810Z,4.60
2023-01-29T02:32:54.774Z,6.30
2023-01-29T02:35:37.874Z,5.80
2023-01-29T02:38:29.518Z,5.90
2023-01-29T02:41:13.053Z,4.90
2023-01-29T02:44:00.428Z,5.40
2023-01-29T02:46:43.828Z,5.80
2023-01-29T02:49:34.417Z,5.00
2023-01-29T02:52:20.075Z,5.80
2023-01-29T02:55:04.970Z,6.00
2023-01-29T02:57:47.149Z,6.60
2023-01-29T03:00:29.204Z,5.50
2023-01-29T03:03:11.359Z,5.30
2023-01-29T03:06:00.007Z,6.00
2023-01-29T03:08:45.810Z,5.00
2023-01-29T03:11:23.393Z,5.70
2023-01-29T03:14:07.371Z,5.20
2023-01-29T03:16:52.540Z,6.70
2023-01-29T03:19:38.279Z,5.40
2023-01-29T03:22:22.287Z,5.60
2023-01-29T03:25:21.189Z,6.00
2023-01-29T03:28:18.255Z,6.10
2023-01-29T03:31:13.706Z,5.60
2023-01-29T03:34:09.659Z,6.40
2023-01-29T03:36:55.950Z,6.10
2023-01-29T03:39:33.665Z,5.40
2023-01-29T03:42:20.182Z,6.20
2023-01-29T03:45:08.388Z,5.40
2023-01-29T03:48:02.393Z,5.40
2023-01-29T03:50:56.652Z,6.10
2023-01-29T03:53:44.336Z,5.90
2023-01-29T03:56:37.280Z,5.10
2023-01-29T03:59:31.130Z,6.10
2023-01-29T04:02:28.219Z,5.70
2023-01-29T04:05:12.930Z,5.80
2023-01-29T04:08:05.714Z,6.40
2023-01-29T04:10:44.269Z,6.60
2023-01-29T04:13:22.477Z,6.40
2023-01-29T04:16:06.435Z,6.60
2023-01-29T04:19:00.432Z,6.70
2023-01-29T04:21:43.374Z,7.10
2023-01-29T04:24:21.753Z,5.90
2023-01-29T04:30:16.580Z,5.80
2023-01-29T04:33:13.152Z,5.70
2023-01-29T04:36:06.238Z,6.40
2023-01-29T04:39:00.098Z,6.70
2023-01-29T04:41:47.900Z,6.10
2023-01-29T04:44:35.493Z,6.30
2023-01-29T04:47:25.053Z,6.60
2023-01-29T04:50:16.636Z,6.70
2023-01-29T04:53:03.251Z,7.00
2023-01-29T04:55:50.090Z,6.40
2023-01-29T04:58:38.813Z,6.80
2023-01-29T05:01:22.760Z,7.40
2023-01-29T05:04:02.329Z,7.10
2023-01-29T05:06:41.975Z,7.20
2023-01-29T05:09:21.992Z,7.50
2023-01-29T05:11:58.577Z,7.80
2023-01-29T05:14:40.465Z,7.20
2023-01-29T05:17:22.976Z,7.40
2023-01-29T05:20:00.466Z,6.80
2023-01-29T05:22:40.495Z,7.00
2023-01-29T05:25:29.817Z,7.20
2023-01-29T05:28:07.332Z,7.60
2023-01-29T05:30:46.556Z,6.70
2023-01-29T05:33:26.174Z,7.80
2023-01-29T05:36:04.145Z,8.10
2023-01-29T05:38:41.466Z,7.50
2023-01-29T05:41:17.533Z,7.50
2023-01-29T05:43:54.051Z,7.90
2023-01-29T05:46:31.052Z,7.30
2023-01-29T05:49:07.270Z,6.80
2023-01-29T05:51:44.256Z,8.10
2023-01-29T05:54:21.548Z,6.20
2023-01-29T05:56:58.812Z,6.60
2023-01-29T05:59:35.213Z,7.40
2023-01-29T06:02:12.127Z,7.00
2023-01-29T06:04:48.867Z,7.30
2023-01-29T06:07:25.237Z,8.10
2023-01-29T06:10:02.166Z,6.70
2023-01-29T06:12:38.434Z,7.70
2023-01-29T06:15:19.855Z,6.60
2023-01-29T06:17:59.370Z,8.20
2023-01-29T06:20:35.710Z,7.30
2023-01-29T06:23:12.886Z,8.10
2023-01-29T06:25:49.949Z,7.70
2023-01-29T06:28:26.827Z,8.20
2023-01-29T06:31:23.795Z,7.40
2023-01-29T06:34:01.510Z,6.60
2023-01-29T06:36:36.975Z,8.30
2023-01-29T06:39:13.418Z,7.90
2023-01-29T06:41:51.116Z,7.80
2023-01-29T06:44:28.557Z,7.70
2023-01-29T06:47:05.268Z,7.50
2023-01-29T06:49:42.130Z,6.90
2023-01-29T06:52:18.725Z,9.10
2023-01-29T06:54:55.614Z,8.20
2023-01-29T06:57:33.443Z,7.40
2023-01-29T07:00:15.738Z,7.70
2023-01-29T07:02:54.493Z,8.00
2023-01-29T07:05:31.609Z,7.70
2023-01-29T07:08:09.708Z,8.60
2023-01-29T07:10:46.176Z,8.40
2023-01-29T07:13:23.833Z,7.90
2023-01-29T07:16:03.143Z,7.70
2023-01-29T07:18:39.566Z,8.60
2023-01-29T07:21:16.788Z,8.70
2023-01-29T07:23:53.486Z,7.70
2023-01-29T07:26:30.724Z,8.30
2023-01-29T07:29:09.417Z,9.20
2023-01-29T07:31:46.194Z,8.50
2023-01-29T07:34:23.554Z,7.80
2023-01-29T07:37:02.867Z,8.60
2023-01-29T07:39:39.155Z,8.20
2023-01-29T07:42:16.134Z,7.90
2023-01-29T07:44:52.086Z,7.90
2023-01-29T07:47:28.718Z,6.80
2023-01-29T07:50:05.357Z,7.80
2023-01-29T07:52:42.843Z,8.10
2023-01-29T07:55:19.934Z,8.10
2023-01-29T07:58:03.267Z,6.50
2023-01-29T08:00:40.115Z,7.30
2023-01-29T08:03:20.538Z,8.40
2023-01-29T08:05:57.346Z,8.40
2023-01-29T08:08:33.971Z,8.70
2023-01-29T08:11:11.244Z,7.60
2023-01-29T08:13:48.198Z,7.70
2023-01-29T08:16:25.593Z,8.70
2023-01-29T08:19:01.355Z,8.30
2023-01-29T08:21:37.835Z,8.30
2023-01-29T08:24:15.776Z,8.40
2023-01-29T08:26:52.331Z,7.90
2023-01-29T08:29:28.343Z,7.00
2023-01-29T08:32:05.791Z,8.10
2023-01-29T08:34:43.553Z,7.50
2023-01-29T08:37:20.318Z,8.80
2023-01-29T08:39:56.802Z,8.70
2023-01-29T08:42:33.371Z,8.20
2023-01-29T08:45:14.053Z,8.30
2023-01-29T08:47:54.882Z,8.10
2023-01-29T08:50:32.210Z,8.50
2023-01-29T08:53:10.019Z,9.50
2023-01-29T08:55:48.278Z,9.00
2023-01-29T08:58:24.698Z,9.30
2023-01-29T09:01:08.340Z,8.90
2023-01-29T09:03:45.300Z,8.70
2023-01-29T09:06:22.582Z,9.20
2023-01-29T09:08:59.206Z,8.90
2023-01-29T09:11:35.905Z,9.60
2023-01-29T09:14:12.832Z,10.10
2023-01-29T09:16:49.176Z,8.90
2023-01-29T09:19:25.755Z,8.80
2023-01-29T09:22:02.642Z,8.40
2023-01-29T09:24:39.616Z,7.80
2023-01-29T09:27:16.197Z,8.20
2023-01-29T09:29:53.055Z,7.20
2023-01-29T09:32:52.787Z,6.70
2023-01-29T09:35:26.152Z,6.40
2023-01-29T09:38:02.251Z,6.30
2023-01-29T09:40:52.035Z,6.10
2023-01-29T09:43:41.454Z,5.80
2023-01-29T09:46:30.708Z,4.90
2023-01-29T09:49:16.499Z,5.30
2023-01-29T09:52:01.604Z,5.40
2023-01-29T09:54:52.317Z,5.90
2023-01-29T09:57:37.446Z,6.30
2023-01-29T10:00:28.125Z,5.40
2023-01-29T10:03:25.965Z,5.50
2023-01-29T10:06:24.397Z,6.70
2023-01-29T10:09:35.259Z,6.50
2023-01-29T10:12:30.381Z,6.30
2023-01-29T10:15:26.329Z,7.10
2023-01-29T10:18:30.091Z,6.00
2023-01-29T10:21:27.563Z,6.00
2023-01-29T10:24:17.442Z,6.50
2023-01-29T10:26:57.464Z,5.60
2023-01-29T10:29:36.548Z,6.50
2023-01-29T10:32:20.475Z,7.00
2023-01-29T10:35:05.672Z,6.60
2023-01-29T10:37:45.301Z,6.70
2023-01-29T10:40:37.357Z,6.30
2023-01-29T10:43:20.523Z,6.60
2023-01-29T10:46:12.169Z,6.10
2023-01-29T10:49:07.515Z,6.70
2023-01-29T10:52:06.116Z,6.30
2023-01-29T10:55:02.466Z,6.40
2023-01-29T10:58:03.070Z,6.50
2023-01-29T11:00:44.941Z,6.90
2023-01-29T11:03:28.936Z,6.30
2023-01-29T11:06:17.776Z,6.90
2023-01-29T11:09:09.022Z,6.70
2023-01-29T11:11:53.845Z,6.10
2023-01-29T11:14:40.650Z,5.90
2023-01-29T11:17:22.606Z,5.90
2023-01-29T11:19:59.665Z,6.30
2023-01-29T11:22:37.711Z,6.70
2023-01-29T11:25:22.325Z,7.50
2023-01-29T11:28:02.861Z,7.00
2023-01-29T11:30:44.436Z,6.60
2023-01-29T11:33:28.471Z,7.20
2023-01-29T11:36:22.477Z,7.30
2023-01-29T11:39:18.532Z,7.00
2023-01-29T11:42:01.260Z,6.90
2023-01-29T11:44:44.596Z,7.00
2023-01-29T11:47:29.321Z,6.70
2023-01-29T11:50:09.225Z,7.00
2023-01-29T11:52:49.254Z,7.50
2023-01-29T11:55:33.066Z,8.80
2023-01-29T11:58:27.023Z,7.30
2023-01-29T12:01:05.896Z,6.60
2023-01-29T12:03:48.637Z,6.90
2023-01-29T12:06:34.217Z,7.30
2023-01-29T12:09:24.592Z,8.10
2023-01-29T12:12:29.512Z,7.20
2023-01-29T12:15:27.384Z,7.40
2023-01-29T12:18:19.086Z,6.70
2023-01-29T12:21:02.045Z,7.80
2023-01-29T12:23:50.521Z,7.90
2023-01-29T12:26:33.893Z,7.70
2023-01-29T12:29:39.563Z,7.40
2023-01-29T12:32:31.299Z,8.60
2023-01-29T12:35:22.235Z,8.10
2023-01-29T12:38:08.428Z,7.90
2023-01-29T12:40:50.301Z,7.60
2023-01-29T12:43:38.288Z,8.20
2023-01-29T12:46:25.073Z,9.20
2023-01-29T12:49:12.704Z,8.50
2023-01-29T12:52:01.548Z,8.10
2023-01-29T12:54:49.256Z,8.30
2023-01-29T12:57:37.223Z,9.00
2023-01-29T13:00:25.565Z,9.40
2023-01-29T13:03:10.593Z,9.90
2023-01-29T13:05:52.843Z,8.80
2023-01-29T13:08:34.956Z,8.60
2023-01-29T13:11:23.370Z,8.50
2023-01-29T13:14:08.959Z,7.90
2023-01-29T13:16:51.407Z,8.40
2023-01-29T13:19:35.318Z,8.30
2023-01-29T13:22:22.327Z,8.30
2023-01-29T13:25:05.003Z,7.70
2023-01-29T13:27:46.123Z,7.60
2023-01-29T13:31:12.365Z,7.90
2023-01-29T13:33:57.844Z,7.80
2023-01-29T13:36:37.443Z,7.50
2023-01-29T13:39:22.214Z,8.00
2023-01-29T13:42:00.973Z,9.20
2023-01-29T13:44:42.579Z,7.20
2023-01-29T13:47:30.802Z,7.50
2023-01-29T13:50:19.900Z,8.40
2023-01-29T13:53:02.474Z,8.90
2023-01-29T13:55:43.001Z,8.30
2023-01-29T14:02:29.611Z,8.30
2023-01-29T14:05:45.598Z,7.80
2023-01-29T14:08:50.683Z,8.90
2023-01-29T14:11:55.932Z,10.30
2023-01-29T14:15:22.802Z,9.40
2023-01-29T14:18:30.272Z,10.90
2023-01-29T14:21:20.350Z,10.40
2023-01-29T14:24:00.744Z,9.10
2023-01-29T14:26:45.878Z,9.50
2023-01-29T14:29:35.048Z,9.30
2023-01-29T14:32:25.244Z,9.40
2023-01-29T14:35:05.786Z,10.70
2023-01-29T14:37:48.675Z,8.90
2023-01-29T14:40:32.275Z,9.00
2023-01-29T14:43:11.115Z,9.10
2023-01-29T14:45:47.600Z,8.80
2023-01-29T14:48:49.799Z,9.20
2023-01-29T14:51:31.079Z,8.00
2023-01-29T14:54:24.844Z,9.30
2023-01-29T14:57:08.359Z,9.30
2023-01-29T14:59:56.750Z,10.00
2023-01-29T15:02:40.978Z,9.30
2023-01-29T15:05:24.071Z,9.30
2023-01-29T15:08:08.735Z,9.10
2023-01-29T15:11:14.777Z,9.80
2023-01-29T15:13:59.630Z,10.60
2023-01-29T15:16:51.863Z,10.20
2023-01-29T15:19:36.868Z,10.00
2023-01-29T15:22:20.105Z,9.10
2023-01-29T15:25:15.970Z,9.20
2023-01-29T15:27:53.457Z,9.70
2023-01-29T15:30:35.452Z,9.90
2023-01-29T15:33:17.132Z,9.40
2023-01-29T15:36:06.867Z,10.10
2023-01-29T15:38:44.503Z,8.90
2023-01-29T15:41:26.810Z,9.40
2023-01-29T15:44:06.091Z,11.20
2023-01-29T15:46:47.285Z,10.20
2023-01-29T15:49:33.145Z,9.00
2023-01-29T15:52:17.856Z,10.90
2023-01-29T15:54:57.583Z,10.70
2023-01-29T15:57:43.788Z,9.70
2023-01-29T16:00:32.588Z,11.30
2023-01-29T16:03:23.979Z,10.50
2023-01-29T16:06:01.125Z,13.10
2023-01-29T16:08:39.054Z,11.50
2023-01-29T16:11:17.289Z,11.80
2023-01-29T16:13:56.426Z,10.40
2023-01-29T16:16:34.942Z,10.80
2023-01-29T16:19:28.161Z,12.50
2023-01-29T16:22:08.412Z,12.20
2023-01-29T16:24:48.114Z,12.80
2023-01-29T16:27:28.627Z,11.80
2023-01-29T16:30:07.593Z,12.00
2023-01-29T16:32:44.817Z,12.10
2023-01-29T16:35:23.318Z,12.70
2023-01-29T16:38:05.661Z,12.00
2023-01-29T16:41:05.613Z,13.00
2023-01-29T16:43:57.480Z,12.80
2023-01-29T16:46:39.466Z,12.00
2023-01-29T16:49:51.462Z,13.40
2023-01-29T16:52:32.794Z,12.60
2023-01-29T16:55:29.412Z,13.00
2023-01-29T16:58:18.678Z,13.40
2023-01-29T17:01:00.603Z,12.60
2023-01-29T17:03:38.139Z,11.70
2023-01-29T17:06:26.854Z,14.70
2023-01-29T17:09:04.869Z,12.50
2023-01-29T17:11:44.445Z,12.90
2023-01-29T17:14:27.062Z,11.60
2023-01-29T17:17:07.609Z,14.50
2023-01-29T17:19:44.234Z,13.90
2023-01-29T17:22:21.021Z,19.10
2023-01-29T17:24:58.320Z,62.10
2023-01-29T17:27:34.721Z,40.90
2023-01-29T17:30:21.430Z,17.30
2023-01-29T17:32:58.747Z,22.50
2023-01-29T17:35:36.199Z,15.60
2023-01-29T17:38:25.612Z,14.00
2023-01-29T17:41:05.438Z,13.10
2023-01-29T17:43:41.966Z,12.70
2023-01-29T17:46:21.248Z,13.60
2023-01-29T17:48:58.085Z,14.10
2023-01-29T17:51:34.987Z,13.60
2023-01-29T17:54:13.299Z,13.40
2023-01-29T17:56:50.268Z,13.00
2023-01-29T17:59:32.035Z,14.30
2023-01-29T18:02:29.709Z,13.90
2023-01-29T18:05:06.843Z,14.80
2023-01-29T18:07:43.576Z,14.70
2023-01-29T18:10:25.313Z,12.90
2023-01-29T18:13:02.432Z,13.00
2023-01-29T18:15:39.457Z,14.10
2023-01-29T18:18:21.244Z,13.10
2023-01-29T18:20:58.703Z,13.00
2023-01-29T18:23:36.109Z,12.90
2023-01-29T18:26:15.353Z,13.50
2023-01-29T18:28:52.630Z,13.70
2023-01-29T18:31:29.960Z,14.50
2023-01-29T18:34:06.514Z,12.50
2023-01-29T18:36:47.158Z,14.00
2023-01-29T18:39:24.350Z,14.90
2023-01-29T18:42:01.091Z,14.90
2023-01-29T18:44:38.406Z,14.00
2023-01-29T18:47:14.923Z,14.20
2023-01-29T18:49:52.845Z,14.50
2023-01-29T18:52:29.421Z,15.50
2023-01-29T18:55:11.528Z,14.80
2023-01-29T18:58:26.638Z,14.60
2023-01-29T19:00:45.055Z,14.50
2023-01-29T19:03:22.057Z,15.70
2023-01-29T19:06:02.650Z,14.20
2023-01-29T19:08:39.395Z,12.70
2023-01-29T19:11:16.566Z,14.00
2023-01-29T19:13:53.113Z,12.90
2023-01-29T19:16:30.375Z,19.20
2023-01-29T19:19:07.635Z,16.40
2023-01-29T19:21:43.554Z,17.80
2023-01-29T19:24:20.461Z,17.70
2023-01-29T19:26:57.065Z,16.70
2023-01-29T19:29:33.970Z,16.20
2023-01-29T19:32:11.413Z,16.50
2023-01-29T19:34:48.606Z,15.50
2023-01-29T19:37:25.318Z,14.70
2023-01-29T19:40:02.312Z,13.70
2023-01-29T19:42:39.212Z,14.90
2023-01-29T19:45:37.226Z,15.60
2023-01-29T19:48:17.114Z,15.40
2023-01-29T19:50:59.480Z,15.40
2023-01-29T19:53:36.389Z,14.40
2023-01-29T19:56:16.078Z,15.50
2023-01-29T19:58:57.591Z,15.40
2023-01-29T20:01:34.897Z,14.40
2023-01-29T20:04:11.965Z,15.60
2023-01-29T20:06:48.631Z,15.80
2023-01-29T20:09:25.534Z,14.90
2023-01-29T20:12:02.278Z,15.10
2023-01-29T20:14:39.453Z,14.20
2023-01-29T20:17:16.200Z,16.00
2023-01-29T20:19:53.454Z,14.90
2023-01-29T20:22:31.222Z,16.20
2023-01-29T20:25:08.876Z,17.60
2023-01-29T20:27:44.711Z,16.40
2023-01-29T20:30:24.577Z,17.20
2023-01-29T20:33:00.929Z,17.40
2023-01-29T20:35:38.445Z,16.90
2023-01-29T20:38:15.689Z,18.10
2023-01-29T20:40:52.196Z,17.60
2023-01-29T20:43:29.232Z,15.80
2023-01-29T20:46:07.298Z,15.50
2023-01-29T20:48:44.778Z,15.30
2023-01-29T20:51:22.607Z,15.00
2023-01-29T20:53:59.075Z,15.40
2023-01-29T20:56:41.019Z,13.20
2023-01-29T20:59:19.667Z,12.60
2023-01-29T21:01:56.252Z,13.50
2023-01-29T21:04:33.096Z,14.00
2023-01-29T21:07:10.148Z,14.10
2023-01-29T21:09:47.808Z,14.20
2023-01-29T21:12:24.865Z,14.00
2023-01-29T21:15:02.321Z,13.10
2023-01-29T21:17:39.475Z,11.70
2023-01-29T21:20:21.077Z,13.90
2023-01-29T21:22:58.918Z,13.20
2023-01-29T21:25:37.038Z,13.20
2023-01-29T21:28:14.859Z,13.20
2023-01-29T21:30:51.397Z,13.00
2023-01-29T21:33:27.949Z,13.40
2023-01-29T21:36:08.014Z,11.60
2023-01-29T21:38:45.761Z,13.30
2023-01-29T21:41:43.904Z,13.10
2023-01-29T21:44:20.412Z,15.10
2023-01-29T21:46:58.695Z,18.80
2023-01-29T21:49:35.027Z,15.80
2023-01-29T21:52:12.637Z,14.60
2023-01-29T21:54:49.899Z,12.60
2023-01-29T21:57:27.372Z,14.30
2023-01-29T22:00:04.222Z,12.60
2023-01-29T22:02:41.565Z,13.00
2023-01-29T22:05:20.431Z,11.70
2023-01-29T22:07:57.243Z,13.10
2023-01-29T22:10:37.342Z,12.70
2023-01-29T22:13:14.575Z,12.90
2023-01-29T22:15:51.824Z,13.60
2023-01-29T22:18:29.460Z,14.00
2023-01-29T22:21:06.490Z,12.30
2023-01-29T22:23:42.709Z,12.90
2023-01-29T22:26:20.344Z,13.80
2023-01-29T22:28:57.506Z,16.40
2023-01-29T22:31:34.957Z,16.80
2023-01-29T22:34:11.729Z,16.70
2023-01-29T22:36:48.492Z,14.60
2023-01-29T22:39:25.950Z,14.80
2023-01-29T22:42:02.877Z,15.10
2023-01-29T22:44:39.886Z,15.80
2023-01-29T22:47:17.033Z,14.80
2023-01-29T22:49:54.052Z,13.30
2023-01-29T22:52:39.405Z,12.70
2023-01-29T22:55:21.727Z,14.30
2023-01-29T22:57:59.914Z,14.60
2023-01-29T23:00:37.483Z,13.60
2023-01-29T23:03:14.807Z,15.30
2023-01-29T23:05:50.878Z,12.40
2023-01-29T23:08:28.832Z,12.60
2023-01-29T23:11:15.645Z,12.30
2023-01-29T23:13:54.779Z,10.90
2023-01-29T23:16:32.592Z,11.30
2023-01-29T23:19:08.952Z,11.90
2023-01-29T23:21:45.647Z,12.20
2023-01-29T23:24:23.011Z,11.70
2023-01-29T23:27:17.527Z,10.80
2023-01-29T23:29:54.318Z,12.60
2023-01-29T23:32:30.970Z,12.90
2023-01-29T23:35:08.371Z,12.70
2023-01-29T23:37:45.568Z,12.00
2023-01-29T23:40:24.807Z,14.60
2023-01-29T23:43:01.441Z,13.60
2023-01-29T23:45:38.208Z,16.50
2023-01-29T23:48:16.353Z,15.80
2023-01-29T23:50:53.378Z,17.00
2023-01-29T23:53:30.088Z,14.50
2023-01-29T23:56:10.156Z,14.00
2023-01-29T23:58:46.241Z,13.60
